createdAt,value
2019-02-24T00:01:10.926Z,0.78
2019-02-24T00:03:59.355Z,0.76
2019-02-24T00:06:47.723Z,0.76
2019-02-24T00:09:36.300Z,0.76
2019-02-24T00:12:25.169Z,0.76
2019-02-24T00:15:13.843Z,0.72
2019-02-24T00:18:02.869Z,0.70
2019-02-24T00:20:51.702Z,0.70
2019-02-24T00:23:40.583Z,0.65
2019-02-24T00:26:29.115Z,0.66
2019-02-24T00:29:17.942Z,0.64
2019-02-24T00:32:09.609Z,0.65
2019-02-24T00:34:57.849Z,0.63
2019-02-24T00:37:46.713Z,0.62
2019-02-24T00:40:35.466Z,0.65
2019-02-24T00:43:23.861Z,0.62
2019-02-24T00:46:12.679Z,0.59
2019-02-24T00:49:00.950Z,0.60
2019-02-24T00:51:49.889Z,0.56
2019-02-24T00:54:37.995Z,0.48
2019-02-24T00:57:26.860Z,0.47
2019-02-24T01:00:16.022Z,0.48
2019-02-24T01:03:05.027Z,0.43
2019-02-24T01:05:53.645Z,0.39
2019-02-24T01:08:42.328Z,0.35
2019-02-24T01:11:31.080Z,0.39
2019-02-24T01:14:19.801Z,0.28
2019-02-24T01:17:10.316Z,0.29
2019-02-24T01:19:59.258Z,0.32
2019-02-24T01:22:47.696Z,0.33
2019-02-24T01:25:36.263Z,0.29
2019-02-24T01:28:25.658Z,0.33
2019-02-24T01:31:14.234Z,0.32
2019-02-24T01:34:02.768Z,0.31
2019-02-24T01:36:51.557Z,0.31
2019-02-24T01:39:40.669Z,0.30
2019-02-24T01:42:29.506Z,0.29
2019-02-24T01:45:17.921Z,0.28
2019-02-24T01:48:06.474Z,0.30
2019-02-24T01:50:54.824Z,0.27
2019-02-24T01:53:43.459Z,0.26
2019-02-24T01:56:32.008Z,0.22
2019-02-24T01:59:20.929Z,0.17
2019-02-24T02:02:09.844Z,0.14
2019-02-24T02:04:58.603Z,0.12
2019-02-24T02:07:47.186Z,0.11
2019-02-24T02:10:35.411Z,0.10
2019-02-24T02:13:24.168Z,0.07
2019-02-24T02:16:12.841Z,0.09
2019-02-24T02:19:01.085Z,0.07
2019-02-24T02:21:49.886Z,0.02
2019-02-24T02:24:38.270Z,-0.02
2019-02-24T02:27:27.355Z,0.00
2019-02-24T02:30:16.157Z,-0.02
2019-02-24T02:33:04.949Z,-0.02
2019-02-24T02:35:53.635Z,-0.10
2019-02-24T02:38:42.472Z,-0.09
2019-02-24T02:41:31.426Z,-0.06
2019-02-24T02:44:20.212Z,-0.07
2019-02-24T02:47:09.124Z,-0.09
2019-02-24T02:49:57.723Z,-0.09
2019-02-24T02:52:45.872Z,-0.11
2019-02-24T02:55:34.569Z,-0.12
2019-02-24T02:58:22.631Z,-0.10
2019-02-24T03:01:10.789Z,-0.14
2019-02-24T03:03:59.891Z,-0.21
2019-02-24T03:07:06.801Z,-0.26
2019-02-24T03:09:55.744Z,-0.26
2019-02-24T03:12:44.938Z,-0.30
2019-02-24T03:15:34.038Z,-0.29
2019-02-24T03:18:22.586Z,-0.30
2019-02-24T03:21:10.711Z,-0.29
2019-02-24T03:23:59.472Z,-0.33
2019-02-24T03:26:48.549Z,-0.33
2019-02-24T03:29:37.406Z,-0.36
2019-02-24T03:32:26.257Z,-0.34
2019-02-24T03:35:15.033Z,-0.36
2019-02-24T03:38:03.745Z,-0.38
2019-02-24T03:40:52.169Z,-0.37
2019-02-24T03:43:40.197Z,-0.38
2019-02-24T03:46:28.323Z,-0.38
2019-02-24T03:49:16.944Z,-0.38
2019-02-24T03:52:05.800Z,-0.39
2019-02-24T03:54:54.268Z,-0.40
2019-02-24T03:57:43.030Z,-0.44
2019-02-24T04:00:32.069Z,-0.46
2019-02-24T04:03:20.870Z,-0.47
2019-02-24T04:06:10.022Z,-0.46
2019-02-24T04:08:58.806Z,-0.45
2019-02-24T04:11:47.646Z,-0.40
2019-02-24T04:14:36.212Z,-0.36
2019-02-24T04:17:25.201Z,-0.33
2019-02-24T04:20:14.080Z,-0.38
2019-02-24T04:23:02.117Z,-0.43
2019-02-24T04:25:50.532Z,-0.47
2019-02-24T04:28:39.115Z,-0.47
2019-02-24T04:31:27.895Z,-0.49
2019-02-24T04:34:16.813Z,-0.60
2019-02-24T04:37:05.396Z,-0.56
2019-02-24T04:39:54.152Z,-0.52
2019-02-24T04:42:43.312Z,-0.52
2019-02-24T04:45:32.470Z,-0.58
2019-02-24T04:48:21.014Z,-0.58
2019-02-24T04:51:09.880Z,-0.59
2019-02-24T04:53:58.489Z,-0.60
2019-02-24T04:56:46.742Z,-0.59
2019-02-24T04:59:35.451Z,-0.54
2019-02-24T05:02:24.197Z,-0.58
2019-02-24T05:05:12.941Z,-0.62
2019-02-24T05:08:01.294Z,-0.66
2019-02-24T05:10:49.475Z,-0.68
2019-02-24T05:13:38.474Z,-0.67
2019-02-24T05:16:26.680Z,-0.67
2019-02-24T05:19:15.037Z,-0.68
2019-02-24T05:22:03.393Z,-0.70
2019-02-24T05:24:51.853Z,-0.68
2019-02-24T05:27:40.685Z,-0.70
2019-02-24T05:30:29.365Z,-0.73
2019-02-24T05:33:18.123Z,-0.75
2019-02-24T05:36:06.190Z,-0.77
2019-02-24T05:38:55.164Z,-0.77
2019-02-24T05:41:43.934Z,-0.78
2019-02-24T05:44:32.919Z,-0.80
2019-02-24T05:47:21.269Z,-0.84
2019-02-24T05:50:09.978Z,-0.85
2019-02-24T05:52:58.562Z,-0.84
2019-02-24T05:55:46.971Z,-0.87
2019-02-24T05:58:35.474Z,-0.88
2019-02-24T06:01:23.633Z,-0.94
2019-02-24T06:04:12.448Z,-0.94
2019-02-24T06:07:01.047Z,-0.94
2019-02-24T06:09:49.594Z,-0.97
2019-02-24T06:12:38.756Z,-0.98
2019-02-24T06:15:27.460Z,-1.00
2019-02-24T06:18:15.981Z,-0.99
2019-02-24T06:21:04.720Z,-0.98
2019-02-24T06:23:53.379Z,-0.95
2019-02-24T06:26:42.217Z,-0.94
2019-02-24T06:29:31.174Z,-1.05
2019-02-24T06:32:20.095Z,-0.97
2019-02-24T06:35:09.044Z,-0.89
2019-02-24T06:37:57.798Z,-0.89
2019-02-24T06:40:46.607Z,-0.82
2019-02-24T06:43:35.241Z,-0.83
2019-02-24T06:46:24.168Z,-0.84
2019-02-24T06:51:50.368Z,-0.74
2019-02-24T06:54:39.411Z,-0.77
2019-02-24T06:57:27.659Z,-0.73
2019-02-24T07:00:16.737Z,-0.68
2019-02-24T07:03:04.857Z,-0.67
2019-02-24T07:05:53.352Z,-0.61
2019-02-24T07:08:42.293Z,-0.63
2019-02-24T07:11:30.944Z,-0.47
2019-02-24T07:14:18.999Z,-0.44
2019-02-24T07:17:07.647Z,-0.35
2019-02-24T07:19:56.598Z,-0.34
2019-02-24T07:22:45.199Z,-0.25
2019-02-24T07:25:34.323Z,-0.18
2019-02-24T07:28:23.424Z,-0.05
2019-02-24T07:31:12.101Z,0.06
2019-02-24T07:34:00.632Z,0.18
2019-02-24T07:36:49.048Z,0.23
2019-02-24T07:39:37.459Z,0.28
2019-02-24T07:42:25.741Z,0.32
2019-02-24T07:45:14.373Z,0.33
2019-02-24T07:48:02.737Z,0.37
2019-02-24T07:50:51.433Z,0.49
2019-02-24T07:53:40.009Z,0.59
2019-02-24T07:56:28.165Z,0.71
2019-02-24T07:59:16.893Z,0.77
2019-02-24T08:02:05.017Z,0.87
2019-02-24T08:04:53.073Z,0.82
2019-02-24T08:07:41.343Z,0.93
2019-02-24T08:10:29.739Z,0.91
2019-02-24T08:13:18.061Z,1.01
2019-02-24T08:16:06.635Z,1.09
2019-02-24T08:18:54.890Z,1.15
2019-02-24T08:21:43.482Z,1.20
2019-02-24T08:24:32.363Z,1.22
2019-02-24T08:27:20.835Z,1.28
2019-02-24T08:30:10.409Z,1.33
2019-02-24T08:32:58.918Z,1.42
2019-02-24T08:35:47.499Z,1.44
2019-02-24T08:38:35.896Z,1.50
2019-02-24T08:41:24.538Z,1.59
2019-02-24T08:44:13.512Z,1.60
2019-02-24T08:47:02.326Z,1.59
2019-02-24T08:49:50.815Z,1.65
2019-02-24T08:52:39.992Z,1.76
2019-02-24T08:55:28.870Z,1.80
2019-02-24T08:58:17.932Z,1.87
2019-02-24T09:01:06.888Z,1.97
2019-02-24T09:03:55.708Z,2.07
2019-02-24T09:06:44.890Z,2.14
2019-02-24T09:09:33.525Z,2.22
2019-02-24T09:12:22.594Z,2.24
2019-02-24T09:15:11.442Z,2.34
2019-02-24T09:17:59.994Z,2.43
2019-02-24T09:20:49.299Z,2.51
2019-02-24T09:23:37.901Z,2.64
2019-02-24T09:26:26.758Z,2.75
2019-02-24T09:29:16.080Z,2.83
2019-02-24T09:32:04.313Z,2.91
2019-02-24T09:34:52.844Z,2.99
2019-02-24T09:37:41.819Z,3.09
2019-02-24T09:40:30.639Z,3.22
2019-02-24T09:43:19.222Z,3.34
2019-02-24T09:46:07.987Z,3.47
2019-02-24T09:48:56.840Z,3.70
2019-02-24T09:51:45.564Z,3.74
2019-02-24T09:54:34.288Z,3.85
2019-02-24T09:57:23.668Z,4.01
2019-02-24T10:00:12.698Z,4.12
2019-02-24T10:03:01.284Z,4.27
2019-02-24T10:05:50.276Z,4.47
2019-02-24T10:08:39.240Z,4.70
2019-02-24T10:11:28.578Z,4.96
2019-02-24T10:14:17.084Z,5.22
2019-02-24T10:17:05.922Z,5.41
2019-02-24T10:19:54.900Z,5.57
2019-02-24T10:22:45.326Z,5.69
2019-02-24T10:25:34.203Z,5.80
2019-02-24T10:28:24.146Z,5.96
2019-02-24T10:31:19.644Z,6.11
2019-02-24T10:34:03.656Z,6.23
2019-02-24T10:36:52.489Z,6.41
2019-02-24T10:39:40.851Z,6.59
2019-02-24T10:42:29.818Z,6.86
2019-02-24T10:45:18.832Z,7.05
2019-02-24T10:48:14.003Z,7.18
2019-02-24T10:50:57.520Z,7.20
2019-02-24T10:53:46.371Z,7.12
2019-02-24T10:56:35.682Z,7.09
2019-02-24T10:59:24.623Z,7.17
2019-02-24T11:02:14.463Z,7.22
2019-02-24T11:05:03.354Z,7.14
2019-02-24T11:07:52.190Z,7.23
2019-02-24T11:10:41.470Z,7.33
2019-02-24T11:13:30.121Z,7.36
2019-02-24T11:16:18.954Z,7.42
2019-02-24T11:19:08.244Z,7.58
2019-02-24T11:21:56.940Z,7.58
2019-02-24T11:24:45.471Z,7.60
2019-02-24T11:27:33.975Z,7.62
2019-02-24T11:30:22.788Z,7.67
2019-02-24T11:33:11.552Z,7.72
2019-02-24T11:35:59.884Z,7.76
2019-02-24T11:38:48.068Z,7.82
2019-02-24T11:41:37.092Z,7.81
2019-02-24T11:44:25.936Z,7.90
2019-02-24T11:47:14.951Z,7.96
2019-02-24T11:50:03.502Z,8.03
2019-02-24T11:52:52.688Z,8.09
2019-02-24T11:55:41.771Z,8.14
2019-02-24T11:58:31.046Z,8.21
2019-02-24T12:01:20.168Z,8.31
2019-02-24T12:04:08.821Z,8.38
2019-02-24T12:06:57.627Z,8.37
2019-02-24T12:12:26.739Z,8.52
2019-02-24T12:15:15.332Z,8.58
2019-02-24T12:18:03.736Z,8.58
2019-02-24T12:20:52.482Z,8.47
2019-02-24T12:23:40.661Z,8.43
2019-02-24T12:26:29.646Z,8.38
2019-02-24T12:29:17.876Z,8.37
2019-02-24T12:32:06.409Z,8.37
2019-02-24T12:34:55.056Z,8.62
2019-02-24T12:37:43.603Z,8.93
2019-02-24T12:40:32.962Z,9.29
2019-02-24T12:43:21.942Z,9.30
2019-02-24T12:46:10.606Z,9.37
2019-02-24T12:48:59.133Z,9.32
2019-02-24T12:51:47.361Z,9.32
2019-02-24T12:54:35.879Z,9.24
2019-02-24T12:57:24.832Z,9.24
2019-02-24T13:00:16.729Z,9.29
2019-02-24T13:03:05.669Z,9.23
2019-02-24T13:05:54.216Z,9.10
2019-02-24T13:08:43.153Z,8.98
2019-02-24T13:11:32.795Z,8.97
2019-02-24T13:14:21.895Z,8.88
2019-02-24T13:17:11.091Z,8.82
2019-02-24T13:20:00.280Z,8.81
2019-02-24T13:22:49.473Z,8.78
2019-02-24T13:25:38.387Z,8.70
2019-02-24T13:28:27.162Z,8.64
2019-02-24T13:31:16.377Z,8.66
2019-02-24T13:34:05.321Z,8.69
2019-02-24T13:36:54.018Z,8.68
2019-02-24T13:39:42.815Z,8.70
2019-02-24T13:42:31.452Z,8.69
2019-02-24T13:45:20.607Z,8.63
2019-02-24T13:48:09.276Z,8.65
2019-02-24T13:50:57.746Z,8.74
2019-02-24T13:53:46.813Z,8.83
2019-02-24T13:56:35.862Z,8.86
2019-02-24T13:59:24.619Z,8.80
2019-02-24T14:02:13.081Z,8.83
2019-02-24T14:05:02.309Z,8.94
2019-02-24T14:07:51.689Z,9.30
2019-02-24T14:10:40.317Z,9.77
2019-02-24T14:13:28.981Z,10.18
2019-02-24T14:16:17.583Z,10.32
2019-02-24T14:19:06.122Z,10.31
2019-02-24T14:21:55.037Z,10.27
2019-02-24T14:24:44.001Z,10.21
2019-02-24T14:27:32.705Z,10.21
2019-02-24T14:30:21.809Z,10.19
2019-02-24T14:33:10.661Z,10.15
2019-02-24T14:35:59.314Z,10.05
2019-02-24T14:38:48.176Z,9.76
2019-02-24T14:41:38.199Z,9.52
2019-02-24T14:44:26.425Z,9.25
2019-02-24T14:47:15.424Z,9.03
2019-02-24T14:50:03.943Z,9.06
2019-02-24T14:52:52.988Z,9.09
2019-02-24T14:55:41.959Z,8.95
2019-02-24T14:58:31.045Z,8.82
2019-02-24T15:01:19.801Z,8.86
2019-02-24T15:04:08.937Z,8.86
2019-02-24T15:06:58.101Z,8.83
2019-02-24T15:09:48.261Z,8.75
2019-02-24T15:12:36.853Z,8.73
2019-02-24T15:15:32.448Z,8.71
2019-02-24T15:18:15.547Z,8.71
2019-02-24T15:21:05.821Z,8.69
2019-02-24T15:23:55.094Z,8.72
2019-02-24T15:26:43.740Z,8.65
2019-02-24T15:29:32.374Z,8.69
2019-02-24T15:32:21.203Z,8.76
2019-02-24T15:35:10.198Z,8.75
2019-02-24T15:37:58.892Z,8.78
2019-02-24T15:40:47.794Z,8.88
2019-02-24T15:43:36.942Z,8.86
2019-02-24T15:46:26.870Z,9.11
2019-02-24T15:49:15.978Z,9.43
2019-02-24T15:52:09.952Z,9.68
2019-02-24T15:54:54.822Z,9.72
2019-02-24T15:57:43.991Z,9.62
2019-02-24T16:00:34.107Z,9.42
2019-02-24T16:03:22.858Z,9.19
2019-02-24T16:06:11.901Z,8.99
2019-02-24T16:09:01.020Z,8.82
2019-02-24T16:11:49.797Z,8.68
2019-02-24T16:14:38.726Z,8.53
2019-02-24T16:17:27.635Z,8.40
2019-02-24T16:20:19.074Z,8.24
2019-02-24T16:23:07.589Z,8.14
2019-02-24T16:25:56.573Z,8.04
2019-02-24T16:28:46.301Z,7.96
2019-02-24T16:31:35.630Z,7.85
2019-02-24T16:34:24.582Z,7.75
2019-02-24T16:37:13.591Z,7.63
2019-02-24T16:40:02.615Z,7.54
2019-02-24T16:42:52.383Z,7.43
2019-02-24T16:45:41.164Z,7.36
2019-02-24T16:48:29.627Z,7.29
2019-02-24T16:51:18.529Z,7.23
2019-02-24T16:54:08.210Z,7.16
2019-02-24T16:57:04.801Z,7.11
2019-02-24T16:59:47.881Z,7.00
2019-02-24T17:02:39.720Z,6.87
2019-02-24T17:05:28.907Z,6.78
2019-02-24T17:08:18.174Z,6.67
2019-02-24T17:11:07.757Z,6.57
2019-02-24T17:13:56.594Z,6.47
2019-02-24T17:16:44.936Z,6.38
2019-02-24T17:19:33.563Z,6.28
2019-02-24T17:22:22.353Z,6.19
2019-02-24T17:25:10.776Z,6.12
2019-02-24T17:27:59.818Z,6.10
2019-02-24T17:30:48.441Z,6.06
2019-02-24T17:33:37.331Z,6.02
2019-02-24T17:36:26.004Z,6.01
2019-02-24T17:39:14.564Z,5.98
2019-02-24T17:42:03.037Z,5.91
2019-02-24T17:44:51.115Z,5.87
2019-02-24T17:47:40.685Z,5.79
2019-02-24T17:50:29.524Z,5.71
2019-02-24T17:53:18.608Z,5.63
2019-02-24T17:56:07.399Z,5.58
2019-02-24T17:58:56.255Z,5.53
2019-02-24T18:01:44.915Z,5.44
2019-02-24T18:04:34.015Z,5.33
2019-02-24T18:07:23.020Z,5.29
2019-02-24T18:10:12.363Z,5.22
2019-02-24T18:13:01.520Z,5.15
2019-02-24T18:15:50.173Z,5.08
2019-02-24T18:18:38.682Z,5.02
2019-02-24T18:21:27.889Z,4.96
2019-02-24T18:24:17.353Z,4.91
2019-02-24T18:27:05.842Z,4.86
2019-02-24T18:29:54.423Z,4.81
2019-02-24T18:32:43.921Z,4.74
2019-02-24T18:35:32.435Z,4.69
2019-02-24T18:38:21.447Z,4.64
2019-02-24T18:41:09.878Z,4.58
2019-02-24T18:43:58.690Z,4.54
2019-02-24T18:46:47.643Z,4.51
2019-02-24T18:49:36.168Z,4.49
2019-02-24T18:52:25.589Z,4.44
2019-02-24T18:55:14.674Z,4.39
2019-02-24T18:58:03.436Z,4.33
2019-02-24T19:00:51.688Z,4.28
2019-02-24T19:03:41.757Z,4.23
2019-02-24T19:06:38.933Z,4.20
2019-02-24T19:09:21.194Z,4.15
2019-02-24T19:12:10.094Z,4.13
2019-02-24T19:14:58.259Z,4.10
2019-02-24T19:17:47.015Z,4.10
2019-02-24T19:20:36.228Z,4.07
2019-02-24T19:23:25.293Z,4.05
2019-02-24T19:26:14.224Z,4.03
2019-02-24T19:29:02.655Z,3.99
2019-02-24T19:31:51.807Z,3.96
2019-02-24T19:34:40.265Z,3.93
2019-02-24T19:37:29.426Z,3.91
2019-02-24T19:40:18.153Z,3.89
2019-02-24T19:43:06.901Z,3.86
2019-02-24T19:45:55.492Z,3.84
2019-02-24T19:48:44.463Z,3.82
2019-02-24T19:51:33.222Z,3.79
2019-02-24T19:54:22.349Z,3.77
2019-02-24T19:57:11.464Z,3.73
2019-02-24T20:00:00.344Z,3.68
2019-02-24T20:02:49.802Z,3.64
2019-02-24T20:05:39.018Z,3.63
2019-02-24T20:08:28.511Z,3.59
2019-02-24T20:11:17.754Z,3.52
2019-02-24T20:14:06.926Z,3.52
2019-02-24T20:16:55.803Z,3.47
2019-02-24T20:19:44.806Z,3.41
2019-02-24T20:22:35.155Z,3.38
2019-02-24T20:25:23.965Z,3.35
2019-02-24T20:28:12.450Z,3.31
2019-02-24T20:31:01.404Z,3.26
2019-02-24T20:33:51.457Z,3.19
2019-02-24T20:36:40.751Z,3.21
2019-02-24T20:39:29.563Z,3.14
2019-02-24T20:42:19.049Z,3.12
2019-02-24T20:45:09.285Z,3.08
2019-02-24T20:47:57.901Z,3.07
2019-02-24T20:50:46.895Z,3.02
2019-02-24T20:53:35.191Z,3.00
2019-02-24T20:56:24.399Z,2.94
2019-02-24T20:59:13.461Z,2.92
2019-02-24T21:02:02.358Z,2.89
2019-02-24T21:04:50.960Z,2.86
2019-02-24T21:07:39.235Z,2.84
2019-02-24T21:10:28.068Z,2.83
2019-02-24T21:13:17.210Z,2.82
2019-02-24T21:16:06.078Z,2.80
2019-02-24T21:18:55.185Z,2.79
2019-02-24T21:21:44.591Z,2.76
2019-02-24T21:24:33.687Z,2.74
2019-02-24T21:27:22.922Z,2.71
2019-02-24T21:30:14.292Z,2.67
2019-02-24T21:33:03.290Z,2.66
2019-02-24T21:35:51.960Z,2.64
2019-02-24T21:38:40.886Z,2.62
2019-02-24T21:41:29.970Z,2.63
2019-02-24T21:44:19.180Z,2.63
2019-02-24T21:47:08.578Z,2.63
2019-02-24T21:49:57.076Z,2.62
2019-02-24T21:52:46.055Z,2.63
2019-02-24T21:55:34.557Z,2.61
2019-02-24T21:58:23.250Z,2.58
2019-02-24T22:01:11.796Z,2.56
2019-02-24T22:04:00.903Z,2.55
2019-02-24T22:06:49.796Z,2.54
2019-02-24T22:09:38.834Z,2.50
2019-02-24T22:12:28.546Z,2.45
2019-02-24T22:15:18.194Z,2.45
2019-02-24T22:18:06.738Z,2.42
2019-02-24T22:20:54.719Z,2.37
2019-02-24T22:23:43.035Z,2.33
2019-02-24T22:26:31.499Z,2.33
2019-02-24T22:29:20.905Z,2.29
2019-02-24T22:32:10.129Z,2.29
2019-02-24T22:34:58.763Z,2.29
2019-02-24T22:37:47.583Z,2.28
2019-02-24T22:40:36.468Z,2.25
2019-02-24T22:43:25.680Z,2.22
2019-02-24T22:46:14.937Z,2.20
2019-02-24T22:49:03.620Z,2.20
2019-02-24T22:51:52.631Z,2.15
2019-02-24T22:54:41.951Z,2.12
2019-02-24T22:57:30.306Z,2.11
2019-02-24T23:01:00.330Z,2.11
2019-02-24T23:03:49.534Z,2.11
2019-02-24T23:06:37.945Z,2.10
2019-02-24T23:09:27.019Z,2.00
2019-02-24T23:12:15.446Z,1.98
2019-02-24T23:15:04.926Z,1.96
2019-02-24T23:17:53.812Z,1.84
2019-02-24T23:20:42.272Z,1.81
2019-02-24T23:23:31.584Z,1.81
2019-02-24T23:26:20.939Z,1.80
2019-02-24T23:29:09.900Z,1.78
2019-02-24T23:31:57.976Z,1.74
2019-02-24T23:34:46.614Z,1.80
2019-02-24T23:37:35.369Z,1.79
2019-02-24T23:40:24.331Z,1.76
2019-02-24T23:43:13.340Z,1.80
2019-02-24T23:46:02.639Z,1.81
2019-02-24T23:48:51.434Z,1.79
2019-02-24T23:51:40.097Z,1.75
2019-02-24T23:54:29.027Z,1.71
2019-02-24T23:57:17.839Z,1.69
